Russell, Massachusetts
Current Conditions -  °F | °C
As of 12:53 PM on Friday 19 Dec 2014 (Local Time) from KBAF Reporting Station
Overcast Overcast  
Wind Chill: 24°   Ceiling: 3000
Heat Index: 34°   Visibility: 10mi
Dew Point: 20°   Wind: 15mph
Humidity: 56%   Direction: 310°NW
Pressure: 29.98"   Gusts: NA
Location:  42.19°N, 72.86°W
Report Text: KBAF 191753Z 31013KT 10SM OVC030 01/M07 A2998 RMK AO2 SLP159 T00111067 10011 20006 58004
Loading
Personal Weather Stations






























Interactive Weather Map New forecast layout! Learn more

10-Day Weather Forecast

Advertisements
Track Severe Weather on mobile